Time;durP1;ratioP1;P1;durP2;ratioP2;P2;SDS_P1;SDS_P2;PMS_P1;PMS_P2;Temp;Humidity;BMP_temperature;BMP_pressure;BME280_temperature;BME280_humidity;BME280_pressure;Samples;Min_cycle;Max_cycle;Signal;HPM_P1;HPM_P2
2024/01/26 00:00:25;;;;;;;5.18;0.60;;;;;;;;;;5123931;27;20047;-75
2024/01/26 00:02:56;;;;;;;4.47;0.45;;;;;;;;;;5124068;27;20047;-74
2024/01/26 00:05:26;;;;;;;7.40;0.93;;;;;;;;;;5123542;27;20414;-74
2024/01/26 00:07:57;;;;;;;5.93;0.57;;;;;;;;;;5123853;27;20047;-76
2024/01/26 00:10:28;;;;;;;3.35;0.50;;;;;;;;;;5124017;27;20047;-74
2024/01/26 00:12:57;;;;;;;7.30;0.50;;;;;;;;;;5123769;27;20119;-74
2024/01/26 00:15:30;;;;;;;10.32;0.60;;;;;;;;;;5123309;27;20058;-74
2024/01/26 00:18:01;;;;;;;2.58;0.60;;;;;;;;;;5122859;27;20047;-74
2024/01/26 00:20:33;;;;;;;1.90;0.60;;;;;;;;;;5123026;27;20057;-74
2024/01/26 00:23:03;;;;;;;4.95;0.90;;;;;;;;;;5123218;27;20043;-75
2024/01/26 00:25:34;;;;;;;7.55;1.10;;;;;;;;;;5123262;27;20402;-74
2024/01/26 00:28:04;;;;;;;4.57;0.60;;;;;;;;;;5123247;27;20045;-77
2024/01/26 00:30:35;;;;;;;5.35;0.88;;;;;;;;;;5120117;27;20783;-75
2024/01/26 00:33:06;;;;;;;6.43;0.80;;;;;;;;;;5122848;27;20042;-75
2024/01/26 00:35:39;;;;;;;6.45;0.50;;;;;;;;;;5123272;27;20042;-77
2024/01/26 00:38:11;;;;;;;2.58;0.70;;;;;;;;;;5123323;27;20051;-75
2024/01/26 00:40:41;;;;;;;5.85;1.15;;;;;;;;;;5123678;27;20047;-73
2024/01/26 00:43:11;;;;;;;4.88;0.80;;;;;;;;;;5123125;27;20054;-74
2024/01/26 00:45:43;;;;;;;10.98;0.70;;;;;;;;;;5120894;27;20497;-75
2024/01/26 00:48:13;;;;;;;4.68;0.70;;;;;;;;;;5119711;27;20043;-75
2024/01/26 00:50:46;;;;;;;3.35;1.02;;;;;;;;;;5120568;27;20120;-76
2024/01/26 00:53:17;;;;;;;4.32;0.55;;;;;;;;;;5119982;28;20058;-76
2024/01/26 00:55:48;;;;;;;5.15;0.70;;;;;;;;;;5118571;28;20054;-75
2024/01/26 00:58:19;;;;;;;4.43;0.45;;;;;;;;;;5118113;28;20108;-75
2024/01/26 01:00:51;;;;;;;6.57;0.80;;;;;;;;;;5117703;28;20053;-74
2024/01/26 01:03:22;;;;;;;8.70;0.60;;;;;;;;;;5119707;28;20421;-74
2024/01/26 01:05:51;;;;;;;3.15;0.80;;;;;;;;;;5119661;28;20046;-75
2024/01/26 01:08:23;;;;;;;5.28;0.70;;;;;;;;;;5119166;27;20036;-75
2024/01/26 01:10:54;;;;;;;5.95;0.47;;;;;;;;;;5120869;27;20527;-74
2024/01/26 01:13:25;;;;;;;7.15;0.70;;;;;;;;;;5124593;27;20057;-79
2024/01/26 01:15:55;;;;;;;7.72;0.80;;;;;;;;;;5124285;27;20051;-74
2024/01/26 01:18:29;;;;;;;8.02;1.25;;;;;;;;;;5124870;27;20504;-75
2024/01/26 01:21:01;;;;;;;4.45;0.60;;;;;;;;;;5122786;27;20555;-77
2024/01/26 01:23:31;;;;;;;5.05;1.00;;;;;;;;;;5123716;27;20035;-75
2024/01/26 01:26:01;;;;;;;4.90;0.98;;;;;;;;;;5124161;27;20051;-75
2024/01/26 01:28:32;;;;;;;6.18;0.65;;;;;;;;;;5124170;27;20394;-75
2024/01/26 01:31:02;;;;;;;4.90;0.80;;;;;;;;;;5123440;27;20416;-76
2024/01/26 01:33:33;;;;;;;9.80;1.35;;;;;;;;;;5123400;27;20047;-75
2024/01/26 01:36:04;;;;;;;6.25;1.00;;;;;;;;;;5123581;27;20055;-75
2024/01/26 01:38:35;;;;;;;3.20;0.80;;;;;;;;;;5123671;27;20039;-76
2024/01/26 01:41:05;;;;;;;4.57;0.60;;;;;;;;;;5121527;27;20051;-75
2024/01/26 01:43:36;;;;;;;3.92;1.02;;;;;;;;;;5123389;27;20039;-77
2024/01/26 01:46:06;;;;;;;4.60;0.70;;;;;;;;;;5123411;27;20054;-76
2024/01/26 01:48:36;;;;;;;4.47;0.73;;;;;;;;;;5123801;27;20054;-78
2024/01/26 01:51:08;;;;;;;3.33;0.63;;;;;;;;;;5121863;27;20417;-74
2024/01/26 01:53:40;;;;;;;7.30;1.00;;;;;;;;;;5123625;27;20405;-75
2024/01/26 01:56:14;;;;;;;7.47;0.90;;;;;;;;;;5123370;27;20051;-75
2024/01/26 01:58:44;;;;;;;3.90;0.88;;;;;;;;;;5123327;27;20121;-76
2024/01/26 02:01:14;;;;;;;1.67;0.60;;;;;;;;;;5121350;27;20043;-74
2024/01/26 02:03:45;;;;;;;7.88;0.90;;;;;;;;;;5123045;27;20395;-76
2024/01/26 02:06:17;;;;;;;2.67;0.63;;;;;;;;;;5122643;27;20051;-74
2024/01/26 02:08:48;;;;;;;5.85;0.70;;;;;;;;;;5123194;27;20414;-75
2024/01/26 02:11:18;;;;;;;5.45;0.75;;;;;;;;;;5120891;27;20074;-76
2024/01/26 02:13:49;;;;;;;8.45;1.40;;;;;;;;;;5123226;27;20043;-76
2024/01/26 02:16:20;;;;;;;3.70;0.70;;;;;;;;;;5122611;27;20425;-75
2024/01/26 02:18:51;;;;;;;3.75;1.25;;;;;;;;;;5122998;27;20050;-73
2024/01/26 02:21:22;;;;;;;5.63;0.80;;;;;;;;;;5123057;27;20444;-77
2024/01/26 02:23:53;;;;;;;3.10;0.85;;;;;;;;;;5122823;27;20497;-77
2024/01/26 02:26:25;;;;;;;2.92;0.80;;;;;;;;;;5123603;27;20065;-77
2024/01/26 02:28:56;;;;;;;1.23;0.65;;;;;;;;;;5122785;27;20054;-73
2024/01/26 02:31:26;;;;;;;3.15;1.38;;;;;;;;;;5123449;27;20051;-76
2024/01/26 02:33:57;;;;;;;3.58;0.73;;;;;;;;;;5122507;27;20058;-77
2024/01/26 02:36:30;;;;;;;3.70;0.80;;;;;;;;;;5122609;27;20054;-74
2024/01/26 02:39:00;;;;;;;3.03;0.75;;;;;;;;;;5122161;27;20047;-76
2024/01/26 02:41:32;;;;;;;1.85;0.70;;;;;;;;;;5122636;27;20057;-74
2024/01/26 02:44:03;;;;;;;3.33;0.95;;;;;;;;;;5122374;27;20058;-76
2024/01/26 02:46:34;;;;;;;4.32;0.95;;;;;;;;;;5120280;27;20051;-75
2024/01/26 02:49:05;;;;;;;7.18;0.90;;;;;;;;;;5121418;27;20055;-74
2024/01/26 02:51:36;;;;;;;3.95;0.63;;;;;;;;;;5122202;27;20046;-74
2024/01/26 02:54:07;;;;;;;3.33;0.75;;;;;;;;;;5121801;27;20047;-75
2024/01/26 02:56:39;;;;;;;6.53;0.75;;;;;;;;;;5122318;27;20054;-75
2024/01/26 02:59:10;;;;;;;4.65;0.77;;;;;;;;;;5121981;27;20054;-74
2024/01/26 03:01:40;;;;;;;3.88;0.70;;;;;;;;;;5122248;27;20186;-73
2024/01/26 03:04:11;;;;;;;6.70;0.70;;;;;;;;;;5122416;27;20505;-80
2024/01/26 03:06:43;;;;;;;8.23;0.73;;;;;;;;;;5121697;27;20058;-74
2024/01/26 03:09:14;;;;;;;3.53;0.77;;;;;;;;;;5122077;27;20055;-75
2024/01/26 03:11:46;;;;;;;4.88;0.65;;;;;;;;;;5121414;27;20043;-74
2024/01/26 03:14:18;;;;;;;5.95;0.80;;;;;;;;;;5122929;27;20043;-74
2024/01/26 03:16:49;;;;;;;3.00;0.70;;;;;;;;;;5119526;27;20058;-74
2024/01/26 03:19:20;;;;;;;5.60;0.77;;;;;;;;;;5121731;27;20055;-76
2024/01/26 03:21:51;;;;;;;2.95;0.80;;;;;;;;;;5119638;27;20039;-74
2024/01/26 03:24:22;;;;;;;3.75;0.90;;;;;;;;;;5121831;27;20410;-74
2024/01/26 03:26:53;;;;;;;3.85;0.70;;;;;;;;;;5121890;27;20047;-74
2024/01/26 03:29:24;;;;;;;1.88;0.40;;;;;;;;;;5121352;27;20051;-75
2024/01/26 03:31:55;;;;;;;3.65;0.70;;;;;;;;;;5120497;27;20039;-73
2024/01/26 03:34:25;;;;;;;3.40;0.63;;;;;;;;;;5120953;27;20066;-74
2024/01/26 03:36:56;;;;;;;0.93;0.40;;;;;;;;;;5121246;27;20046;-75
2024/01/26 03:39:27;;;;;;;2.92;0.75;;;;;;;;;;5121100;27;20524;-75
2024/01/26 03:41:58;;;;;;;4.38;0.80;;;;;;;;;;5121399;27;20047;-75
2024/01/26 03:44:28;;;;;;;3.35;0.63;;;;;;;;;;5120889;27;20827;-74
2024/01/26 03:47:00;;;;;;;3.03;0.80;;;;;;;;;;5120671;27;20081;-75
2024/01/26 03:49:31;;;;;;;7.65;1.10;;;;;;;;;;5119911;27;20417;-75
2024/01/26 03:52:01;;;;;;;1.67;0.50;;;;;;;;;;5121818;27;20047;-75
2024/01/26 03:54:31;;;;;;;5.18;0.90;;;;;;;;;;5120761;27;20749;-74
2024/01/26 03:57:02;;;;;;;3.40;0.70;;;;;;;;;;5120847;27;20050;-74
2024/01/26 03:59:34;;;;;;;2.90;0.70;;;;;;;;;;5120848;27;20047;-75
2024/01/26 04:02:05;;;;;;;2.65;0.75;;;;;;;;;;5119613;27;20055;-75
2024/01/26 04:04:35;;;;;;;2.45;0.60;;;;;;;;;;5120721;27;20047;-74
2024/01/26 04:07:06;;;;;;;2.78;0.60;;;;;;;;;;5120543;27;20055;-74
2024/01/26 04:09:40;;;;;;;4.65;0.60;;;;;;;;;;5120851;27;20047;-75
2024/01/26 04:12:11;;;;;;;5.30;0.90;;;;;;;;;;5120550;27;20493;-74
2024/01/26 04:14:41;;;;;;;6.22;1.02;;;;;;;;;;5118635;27;20043;-75
2024/01/26 04:17:12;;;;;;;3.13;0.75;;;;;;;;;;5121297;27;20055;-75
2024/01/26 04:19:44;;;;;;;4.10;0.57;;;;;;;;;;5120655;27;20057;-74
2024/01/26 04:22:15;;;;;;;3.13;0.90;;;;;;;;;;5120288;27;20505;-74
2024/01/26 04:24:45;;;;;;;7.82;0.90;;;;;;;;;;5120894;27;20051;-74
2024/01/26 04:27:17;;;;;;;6.78;0.65;;;;;;;;;;5119891;27;20386;-73
2024/01/26 04:29:50;;;;;;;6.03;0.75;;;;;;;;;;5120145;27;20498;-74
2024/01/26 04:32:21;;;;;;;3.92;0.90;;;;;;;;;;5119138;27;20050;-75
2024/01/26 04:34:51;;;;;;;4.68;1.38;;;;;;;;;;5120174;27;20043;-75
2024/01/26 04:37:22;;;;;;;4.22;0.80;;;;;;;;;;5121106;27;20046;-75
2024/01/26 04:39:52;;;;;;;5.32;0.55;;;;;;;;;;5120164;27;20498;-75
2024/01/26 04:42:22;;;;;;;2.90;0.70;;;;;;;;;;5120225;27;20050;-74
2024/01/26 04:44:55;;;;;;;5.40;0.65;;;;;;;;;;5118951;27;20039;-73
2024/01/26 04:47:27;;;;;;;9.50;0.80;;;;;;;;;;5120337;27;20543;-74
2024/01/26 04:49:58;;;;;;;6.72;0.70;;;;;;;;;;5119632;27;20062;-76
2024/01/26 04:52:28;;;;;;;6.95;0.90;;;;;;;;;;5120323;27;20366;-74
2024/01/26 04:54:58;;;;;;;3.65;0.70;;;;;;;;;;5118944;27;20547;-74
2024/01/26 04:57:29;;;;;;;4.75;0.80;;;;;;;;;;5120011;28;20054;-75
2024/01/26 05:00:00;;;;;;;3.45;1.27;;;;;;;;;;5120235;28;20050;-74
2024/01/26 05:02:31;;;;;;;4.25;0.93;;;;;;;;;;5120320;28;20050;-73
2024/01/26 05:05:01;;;;;;;2.78;0.70;;;;;;;;;;5120430;28;20069;-75
2024/01/26 05:07:32;;;;;;;6.95;0.70;;;;;;;;;;5119918;28;20054;-75
2024/01/26 05:10:05;;;;;;;1.33;0.50;;;;;;;;;;5118232;28;20388;-75
2024/01/26 05:12:36;;;;;;;2.20;0.63;;;;;;;;;;5120056;28;20047;-75
2024/01/26 05:15:09;;;;;;;6.40;0.55;;;;;;;;;;5121139;28;20051;-75
2024/01/26 05:17:40;;;;;;;4.18;0.60;;;;;;;;;;5119821;28;20051;-75
2024/01/26 05:20:11;;;;;;;3.58;0.70;;;;;;;;;;5118092;28;20410;-75
2024/01/26 05:22:42;;;;;;;4.13;0.60;;;;;;;;;;5119656;28;20051;-74
2024/01/26 05:25:12;;;;;;;2.17;0.80;;;;;;;;;;5119537;28;20043;-75
2024/01/26 05:27:42;;;;;;;5.45;1.00;;;;;;;;;;5119554;28;20035;-74
2024/01/26 05:30:14;;;;;;;5.35;1.13;;;;;;;;;;5119795;28;20035;-76
2024/01/26 05:32:46;;;;;;;3.25;0.65;;;;;;;;;;5119703;28;20051;-75
2024/01/26 05:35:16;;;;;;;4.03;0.70;;;;;;;;;;5119927;28;20530;-75
2024/01/26 05:37:46;;;;;;;6.43;0.68;;;;;;;;;;5119562;28;20516;-74
2024/01/26 05:40:16;;;;;;;2.13;0.60;;;;;;;;;;5119771;28;20043;-74
2024/01/26 05:42:48;;;;;;;1.85;0.75;;;;;;;;;;5119312;28;20050;-74
2024/01/26 05:45:18;;;;;;;5.32;0.90;;;;;;;;;;5120327;28;20383;-74
2024/01/26 05:47:49;;;;;;;5.18;1.00;;;;;;;;;;5120009;28;20047;-74
2024/01/26 05:50:21;;;;;;;2.55;0.85;;;;;;;;;;5119165;28;20486;-75
2024/01/26 05:52:54;;;;;;;3.03;0.73;;;;;;;;;;5119630;28;20047;-74
2024/01/26 05:55:25;;;;;;;3.17;0.70;;;;;;;;;;5121014;27;20550;-74
2024/01/26 05:57:55;;;;;;;4.20;0.75;;;;;;;;;;5122851;27;20518;-75
2024/01/26 06:00:25;;;;;;;2.35;0.70;;;;;;;;;;5123230;27;20051;-74
2024/01/26 06:02:56;;;;;;;4.28;0.90;;;;;;;;;;5123145;27;20046;-73
2024/01/26 06:05:27;;;;;;;5.60;1.05;;;;;;;;;;5122967;27;20429;-74
2024/01/26 06:07:59;;;;;;;5.63;0.95;;;;;;;;;;5123057;27;20494;-75
2024/01/26 06:10:29;;;;;;;8.15;1.10;;;;;;;;;;5123354;27;20051;-74
2024/01/26 06:12:59;;;;;;;5.00;0.82;;;;;;;;;;5123759;27;20417;-74
2024/01/26 06:15:29;;;;;;;5.13;0.93;;;;;;;;;;5123775;27;20043;-74
2024/01/26 06:18:00;;;;;;;1.95;0.80;;;;;;;;;;5123724;27;20401;-75
2024/01/26 06:20:33;;;;;;;4.40;0.85;;;;;;;;;;5123084;27;20062;-75
2024/01/26 06:23:03;;;;;;;2.13;0.80;;;;;;;;;;5123819;27;20054;-75
2024/01/26 06:25:34;;;;;;;4.05;0.82;;;;;;;;;;5123307;27;20418;-74
2024/01/26 06:28:05;;;;;;;6.40;0.88;;;;;;;;;;5122887;27;20490;-75
2024/01/26 06:30:36;;;;;;;2.70;0.82;;;;;;;;;;5122821;27;20055;-74
2024/01/26 06:33:07;;;;;;;3.47;0.70;;;;;;;;;;5123360;27;20046;-75
2024/01/26 06:35:38;;;;;;;5.30;0.63;;;;;;;;;;5123313;27;20417;-75
2024/01/26 06:38:09;;;;;;;5.53;0.90;;;;;;;;;;5123244;27;20058;-74
2024/01/26 06:40:41;;;;;;;3.08;0.77;;;;;;;;;;5122695;27;20513;-75
2024/01/26 06:43:12;;;;;;;3.70;0.70;;;;;;;;;;5122561;27;21174;-74
2024/01/26 06:45:42;;;;;;;2.70;0.93;;;;;;;;;;5122898;27;20050;-75
2024/01/26 06:48:13;;;;;;;6.03;0.75;;;;;;;;;;5123252;27;20046;-75
2024/01/26 06:50:44;;;;;;;5.32;0.93;;;;;;;;;;5123048;27;20039;-75
2024/01/26 06:53:14;;;;;;;4.28;0.77;;;;;;;;;;5122837;27;20047;-75
2024/01/26 06:55:45;;;;;;;4.28;0.88;;;;;;;;;;5121970;27;20043;-75
2024/01/26 06:58:17;;;;;;;5.90;0.98;;;;;;;;;;5122886;27;20658;-74
2024/01/26 07:00:48;;;;;;;1.10;0.70;;;;;;;;;;5122998;27;20047;-74
2024/01/26 07:03:19;;;;;;;3.05;0.90;;;;;;;;;;5123131;27;20039;-75
2024/01/26 07:05:50;;;;;;;4.97;1.00;;;;;;;;;;5122876;27;20386;-75
2024/01/26 07:08:22;;;;;;;3.40;0.73;;;;;;;;;;5121951;27;20065;-76
2024/01/26 07:10:52;;;;;;;6.30;0.80;;;;;;;;;;5122535;27;20054;-74
2024/01/26 07:13:23;;;;;;;6.10;0.93;;;;;;;;;;5120252;27;20050;-75
2024/01/26 07:15:53;;;;;;;4.90;1.20;;;;;;;;;;5121998;27;20523;-75
2024/01/26 07:18:24;;;;;;;4.47;0.88;;;;;;;;;;5122545;27;20039;-76
2024/01/26 07:20:55;;;;;;;0.63;0.45;;;;;;;;;;5121906;27;20414;-75
2024/01/26 07:23:26;;;;;;;3.78;0.85;;;;;;;;;;5120300;27;20418;-75
2024/01/26 07:25:56;;;;;;;5.18;0.90;;;;;;;;;;5121799;27;20047;-74
2024/01/26 07:28:27;;;;;;;3.33;1.00;;;;;;;;;;5120475;27;20051;-74
2024/01/26 07:30:59;;;;;;;7.68;1.02;;;;;;;;;;5119783;27;20057;-75
2024/01/26 07:33:29;;;;;;;7.38;1.27;;;;;;;;;;5121606;27;20031;-74
2024/01/26 07:36:00;;;;;;;3.67;1.05;;;;;;;;;;5121699;27;20752;-75
2024/01/26 07:38:31;;;;;;;3.08;0.90;;;;;;;;;;5121405;27;20070;-74
2024/01/26 07:41:01;;;;;;;7.40;1.00;;;;;;;;;;5119484;27;20592;-74
2024/01/26 07:43:32;;;;;;;4.75;0.68;;;;;;;;;;5121261;27;20498;-74
2024/01/26 07:46:02;;;;;;;2.78;0.82;;;;;;;;;;5120861;27;20425;-75
2024/01/26 07:48:32;;;;;;;6.88;1.10;;;;;;;;;;5122052;27;20051;-75
2024/01/26 07:51:03;;;;;;;7.20;0.90;;;;;;;;;;5121384;27;20057;-74
2024/01/26 07:53:34;;;;;;;2.38;0.80;;;;;;;;;;5121066;27;20050;-75
2024/01/26 07:56:06;;;;;;;4.60;1.00;;;;;;;;;;5121024;27;20398;-75
2024/01/26 07:58:38;;;;;;;3.50;0.90;;;;;;;;;;5121010;27;20047;-75
2024/01/26 08:01:12;;;;;;;3.45;0.88;;;;;;;;;;5121132;27;20061;-75
2024/01/26 08:03:44;;;;;;;5.78;1.00;;;;;;;;;;5120825;27;20043;-75
2024/01/26 08:06:16;;;;;;;3.92;1.00;;;;;;;;;;5121161;27;20074;-73
2024/01/26 08:08:47;;;;;;;7.15;1.00;;;;;;;;;;5118774;27;20058;-73
2024/01/26 08:11:19;;;;;;;3.45;0.90;;;;;;;;;;5120953;27;20635;-75
2024/01/26 08:13:50;;;;;;;6.22;1.23;;;;;;;;;;5120919;27;20043;-75
2024/01/26 08:16:22;;;;;;;3.10;1.00;;;;;;;;;;5121400;27;20043;-75
2024/01/26 08:18:53;;;;;;;2.63;0.90;;;;;;;;;;5120840;27;20058;-74
2024/01/26 08:21:25;;;;;;;6.22;1.02;;;;;;;;;;5120772;27;20039;-75
2024/01/26 08:23:56;;;;;;;7.50;1.73;;;;;;;;;;5120591;27;20039;-74
2024/01/26 08:26:26;;;;;;;5.97;1.00;;;;;;;;;;5120881;27;20524;-75
2024/01/26 08:28:58;;;;;;;5.63;0.90;;;;;;;;;;5120607;27;20039;-75
2024/01/26 08:31:29;;;;;;;4.32;1.23;;;;;;;;;;5120159;27;20437;-74
2024/01/26 08:33:59;;;;;;;3.47;0.80;;;;;;;;;;5120920;27;20047;-73
2024/01/26 08:36:30;;;;;;;4.80;0.98;;;;;;;;;;5121126;27;20523;-74
2024/01/26 08:39:02;;;;;;;3.55;0.85;;;;;;;;;;5120827;27;20050;-73
2024/01/26 08:41:33;;;;;;;4.43;1.00;;;;;;;;;;5120696;27;20051;-74
2024/01/26 08:44:08;;;;;;;3.00;1.00;;;;;;;;;;5120355;27;20055;-75
2024/01/26 08:46:38;;;;;;;3.15;1.30;;;;;;;;;;5120524;27;20055;-75
2024/01/26 08:49:09;;;;;;;6.57;1.33;;;;;;;;;;5120362;27;20058;-76
2024/01/26 08:51:41;;;;;;;3.40;0.90;;;;;;;;;;5120237;27;20054;-75
2024/01/26 08:54:12;;;;;;;2.10;0.63;;;;;;;;;;5121100;27;20082;-75
2024/01/26 08:56:43;;;;;;;4.15;0.95;;;;;;;;;;5121054;28;21089;-75
2024/01/26 08:59:14;;;;;;;5.82;0.82;;;;;;;;;;5120276;28;20050;-74
2024/01/26 09:01:46;;;;;;;6.10;1.40;;;;;;;;;;5120318;28;20050;-75
2024/01/26 09:04:17;;;;;;;6.85;1.15;;;;;;;;;;5111749;28;20043;-74
2024/01/26 09:06:49;;;;;;;4.72;1.00;;;;;;;;;;5098593;28;20051;-74
2024/01/26 09:09:34;;;;;;;7.22;0.98;;;;;;;;;;5096286;28;20044;-74
2024/01/26 09:12:05;;;;;;;6.03;1.27;;;;;;;;;;5098795;28;20569;-74
2024/01/26 09:14:35;;;;;;;1.15;0.80;;;;;;;;;;5099195;28;20506;-75
2024/01/26 09:17:06;;;;;;;3.08;0.88;;;;;;;;;;5100192;28;20050;-75
2024/01/26 09:19:38;;;;;;;3.50;1.17;;;;;;;;;;5099532;28;20066;-74
2024/01/26 09:22:09;;;;;;;7.50;0.90;;;;;;;;;;5099275;28;20059;-74
2024/01/26 09:24:40;;;;;;;2.42;0.88;;;;;;;;;;5100170;28;20601;-74
2024/01/26 09:27:11;;;;;;;4.68;0.85;;;;;;;;;;5100675;28;20410;-73
2024/01/26 09:29:42;;;;;;;4.50;1.10;;;;;;;;;;5101385;28;20596;-73
2024/01/26 09:32:13;;;;;;;2.55;1.00;;;;;;;;;;5104457;28;20414;-75
2024/01/26 09:34:44;;;;;;;1.75;0.82;;;;;;;;;;5104482;28;20048;-74
2024/01/26 09:37:14;;;;;;;5.88;0.77;;;;;;;;;;5103784;28;20051;-78
2024/01/26 09:39:46;;;;;;;2.80;1.02;;;;;;;;;;5104083;28;20052;-75
2024/01/26 09:42:16;;;;;;;4.00;0.82;;;;;;;;;;5102078;28;20966;-75
2024/01/26 09:44:47;;;;;;;2.38;0.65;;;;;;;;;;5104213;28;20047;-74
2024/01/26 09:47:18;;;;;;;3.63;0.90;;;;;;;;;;5104299;28;20044;-74
2024/01/26 09:50:03;;;;;;;4.85;0.93;;;;;;;;;;5103870;28;20070;-74
2024/01/26 09:52:38;;;;;;;5.60;0.80;;;;;;;;;;5104133;28;21044;-74
2024/01/26 09:55:09;;;;;;;;;;;;;;;;;;5104279;28;20855;-75
2024/01/26 09:57:41;;;;;;;6.22;0.98;;;;;;;;;;5103719;28;19927;-81
2024/01/26 10:00:16;;;;;;;3.90;0.93;;;;;;;;;;5103805;28;20052;-75
2024/01/26 10:02:47;;;;;;;2.25;1.17;;;;;;;;;;5104395;28;20667;-74
2024/01/26 10:05:19;;;;;;;5.47;1.05;;;;;;;;;;5103683;28;20044;-73
2024/01/26 10:07:49;;;;;;;4.10;1.42;;;;;;;;;;5103270;28;20760;-74
2024/01/26 10:10:20;;;;;;;3.95;1.23;;;;;;;;;;5103756;28;20066;-74
2024/01/26 10:12:52;;;;;;;2.75;1.00;;;;;;;;;;5101217;28;20528;-74
2024/01/26 10:15:22;;;;;;;3.70;0.85;;;;;;;;;;5102712;28;20044;-76
2024/01/26 10:17:55;;;;;;;2.95;0.98;;;;;;;;;;5102716;28;20048;-76
2024/01/26 10:20:27;;;;;;;7.30;1.77;;;;;;;;;;5103309;28;20066;-76
2024/01/26 10:22:57;;;;;;;1.92;1.05;;;;;;;;;;5103181;28;20044;-75
2024/01/26 10:25:28;;;;;;;5.05;1.20;;;;;;;;;;5102792;28;20622;-76
2024/01/26 10:27:59;;;;;;;5.13;1.00;;;;;;;;;;5102997;28;20052;-79
2024/01/26 10:30:31;;;;;;;3.45;0.80;;;;;;;;;;5102309;28;20044;-75
2024/01/26 10:33:03;;;;;;;8.25;1.30;;;;;;;;;;5103173;28;20046;-76
2024/01/26 10:35:34;;;;;;;3.63;1.02;;;;;;;;;;5102383;28;20048;-77
2024/01/26 10:38:09;;;;;;;4.00;0.90;;;;;;;;;;5102980;28;20044;-75
2024/01/26 10:40:44;;;;;;;2.78;0.82;;;;;;;;;;5102179;28;20056;-76
2024/01/26 10:43:18;;;;;;;6.03;1.02;;;;;;;;;;5102077;28;20047;-75
2024/01/26 10:45:49;;;;;;;7.85;1.30;;;;;;;;;;5102752;28;20044;-75
2024/01/26 10:48:19;;;;;;;6.05;1.10;;;;;;;;;;5100027;28;20055;-75
2024/01/26 10:50:51;;;;;;;6.50;1.05;;;;;;;;;;5101594;28;20058;-75
2024/01/26 10:53:22;;;;;;;5.80;1.05;;;;;;;;;;5101166;28;20101;-75
2024/01/26 10:55:54;;;;;;;4.97;1.35;;;;;;;;;;5102194;28;20051;-80
2024/01/26 10:58:25;;;;;;;7.88;1.70;;;;;;;;;;5102596;28;20051;-75
2024/01/26 11:00:57;;;;;;;14.10;1.23;;;;;;;;;;5101679;28;20051;-75
2024/01/26 11:03:28;;;;;;;5.95;1.10;;;;;;;;;;5101503;28;20051;-77
2024/01/26 11:05:59;;;;;;;13.00;1.50;;;;;;;;;;5101379;28;20047;-76
2024/01/26 11:08:32;;;;;;;9.93;1.83;;;;;;;;;;5101643;28;20051;-75
2024/01/26 11:11:04;;;;;;;5.43;1.30;;;;;;;;;;5101672;28;20043;-75
2024/01/26 11:13:39;;;;;;;4.45;0.90;;;;;;;;;;5100931;28;20055;-75
2024/01/26 11:16:09;;;;;;;5.90;1.27;;;;;;;;;;5101311;28;20047;-76
2024/01/26 11:18:39;;;;;;;6.10;1.45;;;;;;;;;;5101232;28;20039;-75
2024/01/26 11:21:20;;;;;;;2.53;0.75;;;;;;;;;;5101270;28;20056;-76
2024/01/26 11:23:51;;;;;;;10.25;2.03;;;;;;;;;;5101691;28;20044;-75
2024/01/26 11:26:25;;;;;;;5.28;1.90;;;;;;;;;;5101173;28;20434;-75
2024/01/26 11:28:55;;;;;;;8.15;1.88;;;;;;;;;;5099927;28;20066;-79
2024/01/26 11:31:31;;;;;;;7.75;1.40;;;;;;;;;;5101492;28;20047;-79
2024/01/26 11:34:02;;;;;;;8.85;1.20;;;;;;;;;;5099146;28;20074;-75
2024/01/26 11:36:33;;;;;;;5.18;0.80;;;;;;;;;;5101151;28;20039;-75
2024/01/26 11:39:05;;;;;;;6.25;0.85;;;;;;;;;;5100722;28;20048;-76
2024/01/26 11:41:35;;;;;;;6.30;0.88;;;;;;;;;;5100496;28;20891;-75
2024/01/26 11:44:14;;;;;;;6.95;1.05;;;;;;;;;;5101352;28;20039;-77
2024/01/26 11:46:47;;;;;;;3.10;1.00;;;;;;;;;;5101016;28;20052;-79
2024/01/26 11:49:18;;;;;;;4.63;1.10;;;;;;;;;;5099524;28;20070;-75
2024/01/26 11:51:48;;;;;;;4.75;0.70;;;;;;;;;;5100031;28;20051;-77
2024/01/26 11:54:20;;;;;;;2.83;0.90;;;;;;;;;;5100492;28;20528;-75
2024/01/26 11:56:51;;;;;;;7.78;1.15;;;;;;;;;;5097545;28;20036;-75
2024/01/26 11:59:22;;;;;;;8.73;1.05;;;;;;;;;;5099845;28;20051;-77
2024/01/26 12:01:54;;;;;;;8.77;2.30;;;;;;;;;;5100243;28;20054;-76
2024/01/26 12:04:29;;;;;;;2.90;0.85;;;;;;;;;;5098143;28;20051;-76
2024/01/26 12:07:01;;;;;;;9.55;0.85;;;;;;;;;;5099749;28;20048;-75
2024/01/26 12:09:31;;;;;;;3.80;0.90;;;;;;;;;;5101881;28;20055;-76
2024/01/26 12:12:06;;;;;;;9.75;3.75;;;;;;;;;;5101807;28;20055;-75
2024/01/26 12:14:39;;;;;;;14.32;1.48;;;;;;;;;;5102698;28;20059;-80
2024/01/26 12:17:10;;;;;;;7.07;2.30;;;;;;;;;;5103235;28;20498;-76
2024/01/26 12:19:40;;;;;;;5.68;1.70;;;;;;;;;;5102931;28;20628;-76
2024/01/26 12:22:10;;;;;;;8.00;1.60;;;;;;;;;;5102661;28;20059;-77
2024/01/26 12:24:42;;;;;;;5.35;1.23;;;;;;;;;;5102967;28;20058;-77
2024/01/26 12:27:14;;;;;;;6.55;0.88;;;;;;;;;;5101266;28;20051;-79
2024/01/26 12:29:45;;;;;;;4.13;1.20;;;;;;;;;;5102993;28;20062;-80
2024/01/26 12:32:17;;;;;;;6.45;1.42;;;;;;;;;;5102034;28;20048;-75
2024/01/26 12:34:48;;;;;;;6.93;1.00;;;;;;;;;;5103536;28;20039;-76
2024/01/26 12:37:21;;;;;;;3.67;1.00;;;;;;;;;;5101867;28;20111;-76
2024/01/26 12:39:51;;;;;;;4.53;1.13;;;;;;;;;;5102911;28;20039;-77
2024/01/26 12:42:22;;;;;;;4.60;1.10;;;;;;;;;;5102313;28;20036;-75
2024/01/26 12:44:54;;;;;;;4.22;0.80;;;;;;;;;;5102325;28;20513;-76
2024/01/26 12:47:26;;;;;;;6.78;1.17;;;;;;;;;;5102984;28;20044;-75
2024/01/26 12:49:56;;;;;;;6.93;1.30;;;;;;;;;;5102428;28;20047;-76
2024/01/26 12:52:28;;;;;;;6.00;0.80;;;;;;;;;;5101958;28;20505;-76
2024/01/26 12:54:59;;;;;;;5.75;1.20;;;;;;;;;;5100831;28;20055;-76
2024/01/26 12:57:30;;;;;;;3.45;0.75;;;;;;;;;;5102885;28;20051;-76
2024/01/26 13:00:02;;;;;;;4.68;0.90;;;;;;;;;;5102844;28;20589;-75
2024/01/26 13:02:35;;;;;;;4.55;0.90;;;;;;;;;;5102569;28;20054;-75
2024/01/26 13:05:08;;;;;;;1.95;0.57;;;;;;;;;;5104199;28;20063;-76
2024/01/26 13:07:39;;;;;;;7.10;0.93;;;;;;;;;;5106616;28;20056;-76
2024/01/26 13:10:10;;;;;;;3.72;0.93;;;;;;;;;;5106184;28;20051;-76
2024/01/26 13:12:42;;;;;;;5.22;0.70;;;;;;;;;;5106742;28;20524;-77
2024/01/26 13:15:20;;;;;;;5.15;0.90;;;;;;;;;;5106621;28;20054;-75
2024/01/26 13:17:52;;;;;;;4.38;1.25;;;;;;;;;;5106241;28;20055;-75
2024/01/26 13:20:23;;;;;;;6.90;1.00;;;;;;;;;;5103636;27;20051;-78
2024/01/26 13:22:54;;;;;;;9.32;1.17;;;;;;;;;;5106173;28;20047;-78
2024/01/26 13:25:24;;;;;;;4.88;1.02;;;;;;;;;;5104504;28;20051;-76
2024/01/26 13:27:55;;;;;;;10.48;1.20;;;;;;;;;;5106330;28;20816;-76
2024/01/26 13:30:26;;;;;;;6.63;0.95;;;;;;;;;;5105640;28;20043;-75
2024/01/26 13:32:58;;;;;;;8.10;0.98;;;;;;;;;;5105590;28;20040;-77
2024/01/26 13:35:29;;;;;;;6.22;1.10;;;;;;;;;;5105765;28;20047;-77
2024/01/26 13:37:59;;;;;;;10.45;0.82;;;;;;;;;;5104894;27;20383;-75
2024/01/26 13:40:30;;;;;;;6.13;1.30;;;;;;;;;;5106329;28;20050;-77
2024/01/26 13:43:01;;;;;;;7.88;1.20;;;;;;;;;;5106301;28;20054;-77
2024/01/26 13:45:32;;;;;;;4.18;0.98;;;;;;;;;;5105898;28;20043;-77
2024/01/26 13:48:04;;;;;;;7.93;1.27;;;;;;;;;;5105991;28;20050;-76
2024/01/26 13:50:43;;;;;;;6.25;1.00;;;;;;;;;;5106168;28;20054;-75
2024/01/26 13:53:14;;;;;;;5.97;0.82;;;;;;;;;;5105815;28;20043;-75
2024/01/26 13:55:45;;;;;;;9.20;1.05;;;;;;;;;;5104666;28;20445;-76
2024/01/26 13:58:15;;;;;;;14.27;1.77;;;;;;;;;;5105140;28;20047;-78
2024/01/26 14:00:48;;;;;;;6.97;1.30;;;;;;;;;;5104207;28;20052;-79
2024/01/26 14:03:19;;;;;;;7.13;1.50;;;;;;;;;;5105057;28;20043;-76
2024/01/26 14:05:50;;;;;;;5.53;0.90;;;;;;;;;;5105593;28;20058;-76
2024/01/26 14:08:21;;;;;;;4.70;0.98;;;;;;;;;;5105991;28;20044;-77
2024/01/26 14:10:52;;;;;;;7.93;0.93;;;;;;;;;;5105682;28;20044;-76
2024/01/26 14:13:23;;;;;;;6.40;1.00;;;;;;;;;;5105462;28;20051;-76
2024/01/26 14:15:56;;;;;;;8.98;0.88;;;;;;;;;;5104777;28;20059;-77
2024/01/26 14:18:27;;;;;;;5.47;0.90;;;;;;;;;;5105451;28;20051;-75
2024/01/26 14:20:59;;;;;;;6.85;1.23;;;;;;;;;;5104895;28;20425;-77
2024/01/26 14:23:29;;;;;;;5.18;0.90;;;;;;;;;;5105363;28;20054;-76
2024/01/26 14:26:00;;;;;;;6.30;1.00;;;;;;;;;;5105650;28;20057;-77
2024/01/26 14:28:30;;;;;;;7.50;0.98;;;;;;;;;;5105469;28;20058;-77
2024/01/26 14:31:01;;;;;;;9.00;1.70;;;;;;;;;;5105672;28;20063;-80
2024/01/26 14:33:32;;;;;;;7.97;1.00;;;;;;;;;;5104319;28;20058;-75
2024/01/26 14:36:04;;;;;;;8.25;1.00;;;;;;;;;;5104654;28;20048;-76
2024/01/26 14:38:35;;;;;;;7.00;0.95;;;;;;;;;;5105032;28;20406;-75
2024/01/26 14:41:07;;;;;;;4.72;0.88;;;;;;;;;;5104214;28;20044;-75
2024/01/26 14:43:38;;;;;;;6.10;0.90;;;;;;;;;;5103272;28;20051;-76
2024/01/26 14:46:09;;;;;;;7.10;1.05;;;;;;;;;;5105012;28;20569;-78
2024/01/26 14:48:41;;;;;;;7.05;1.13;;;;;;;;;;5104239;28;20106;-75
2024/01/26 14:51:13;;;;;;;13.60;1.58;;;;;;;;;;5104720;28;20039;-76
2024/01/26 14:53:46;;;;;;;9.50;1.20;;;;;;;;;;5104961;28;20505;-75
2024/01/26 14:56:16;;;;;;;6.15;0.73;;;;;;;;;;5104412;28;20510;-77
2024/01/26 14:58:46;;;;;;;6.53;0.70;;;;;;;;;;5104586;28;20490;-72
2024/01/26 15:01:16;;;;;;;6.40;0.95;;;;;;;;;;5103861;28;20047;-76
2024/01/26 15:03:47;;;;;;;3.85;1.00;;;;;;;;;;5104322;28;20402;-75
2024/01/26 15:06:19;;;;;;;6.03;1.10;;;;;;;;;;5104760;28;20051;-76